Sheppard AFB, Texas
Current Conditions -  °F | °C
As of 11:52 AM on Monday 24 Nov 2014 (Local Time) from KSPS Reporting Station
Few Clouds Few Clouds  
Wind Chill: 56°   Ceiling: Unl
Heat Index: 56°   Visibility: 10mi
Dew Point: 27°   Wind: 12mph
Humidity: 33%   Direction: 320°NW
Pressure: 30.06"   Gusts: NA
Location:  33.94°N, 98.5°W
Report Text: KSPS 241752Z 32010KT 10SM FEW120 13/M03 A3006 RMK AO2 SLP175 T01331028 10133 20028 50004
Loading
Personal Weather Stations






























Interactive Weather Map New forecast layout! Learn more

10-Day Weather Forecast

Advertisements
Track Severe Weather on mobile